Creech Afb Information

FAA: INS - ICAO: KINS

Creech Afb (Airport) Location

State Nevada
County Clark
City Indian Springs
Creech Afb (Airport) is 1 mile north of Indian Springs, NV.
Latitude 36-35-10.8376N
Longitude 115-40-38.5340W
Elevation 3,134ft

Creech Afb METARs

METAR KINS 060858Z AUTO 33004KT 10SM CLR 05/M11 A3016 RMK AO2 SLP192 T00501112 50001 $
Altimeter 30.16"
Temperature 5.0°C (41.0°F)
Wind 330° at 4KT
Clouds Skies are clear.
Visibility 10.0mi
Time observed: 2021-12-06T08:58:00Z

Creech Afb (Airport) Details

Status Operational
Activation N/A
Ownership Military - Air Force
Usage Private
Chart LAS VEGAS
ATC on-site Yes
Beacon schedule sunset-sunrise
Beacon color clear green

Creech Afb (Airport) Contacts

Owner USAF
Owner address NELLIS AFB, LAS VEGAS, NV 89110
Owner phone N/A
Manager JOHN WALZL
Manager address P.O. BOX 206, EUREKA, NV 89316
Manager phone 775-237-6100

Creech Afb Radio Frequencies

Creech Afb (Airport) Radio Frequencies

UNICOM N/A
Common traffic advisory frequency (CTAF) N/A